createdAt,value
2019-03-09T00:00:31.998Z,977.57
2019-03-09T00:01:31.961Z,977.58
2019-03-09T00:02:31.919Z,977.49
2019-03-09T00:03:31.882Z,977.57
2019-03-09T00:04:31.837Z,977.54
2019-03-09T00:05:31.795Z,977.48
2019-03-09T00:06:31.753Z,977.46
2019-03-09T00:07:31.711Z,977.46
2019-03-09T00:08:31.671Z,977.44
2019-03-09T00:09:31.632Z,977.51
2019-03-09T00:10:31.593Z,977.54
2019-03-09T00:11:31.553Z,977.38
2019-03-09T00:12:31.512Z,977.30
2019-03-09T00:13:31.467Z,977.27
2019-03-09T00:14:31.425Z,977.14
2019-03-09T00:15:31.389Z,977.29
2019-03-09T00:16:31.348Z,977.24
2019-03-09T00:17:31.304Z,977.27
2019-03-09T00:18:31.261Z,977.20
2019-03-09T00:19:31.219Z,977.28
2019-03-09T00:20:31.180Z,977.27
2019-03-09T00:21:31.142Z,977.24
2019-03-09T00:22:31.105Z,977.28
2019-03-09T00:23:31.063Z,977.22
2019-03-09T00:24:31.019Z,977.15
2019-03-09T00:25:30.977Z,977.23
2019-03-09T00:26:30.935Z,977.13
2019-03-09T00:27:30.893Z,977.11
2019-03-09T00:28:30.856Z,977.09
2019-03-09T00:29:30.852Z,977.19
2019-03-09T00:30:30.776Z,977.18
2019-03-09T00:31:30.739Z,977.23
2019-03-09T00:32:30.698Z,977.17
2019-03-09T00:33:30.656Z,977.05
2019-03-09T00:34:30.615Z,976.99
2019-03-09T00:35:30.573Z,976.91
2019-03-09T00:36:30.530Z,976.97
2019-03-09T00:37:30.490Z,977.01
2019-03-09T00:38:30.444Z,977.04
2019-03-09T00:39:30.404Z,976.96
2019-03-09T00:40:30.366Z,977.08
2019-03-09T00:41:30.328Z,977.00
2019-03-09T00:42:30.290Z,977.01
2019-03-09T00:43:30.248Z,977.03
2019-03-09T00:44:30.206Z,977.15
2019-03-09T00:45:30.166Z,977.14
2019-03-09T00:46:30.117Z,977.08
2019-03-09T00:47:30.083Z,977.08
2019-03-09T00:48:30.040Z,977.08
2019-03-09T00:49:29.998Z,977.04
2019-03-09T00:50:29.954Z,977.02
2019-03-09T00:51:29.914Z,977.09
2019-03-09T00:52:29.875Z,977.15
2019-03-09T00:53:29.836Z,977.06
2019-03-09T00:54:29.797Z,977.15
2019-03-09T00:55:29.758Z,977.14
2019-03-09T00:56:29.714Z,977.05
2019-03-09T00:57:29.671Z,977.01
2019-03-09T00:58:29.626Z,977.03
2019-03-09T00:59:29.586Z,977.11
2019-03-09T01:00:29.552Z,977.09
2019-03-09T01:01:29.509Z,976.99
2019-03-09T01:02:29.470Z,977.05
2019-03-09T01:03:29.423Z,977.08
2019-03-09T01:04:29.385Z,976.82
2019-03-09T01:05:29.347Z,976.96
2019-03-09T01:06:29.306Z,976.92
2019-03-09T01:07:29.281Z,976.86
2019-03-09T01:08:29.224Z,976.88
2019-03-09T01:09:29.181Z,976.76
2019-03-09T01:10:29.138Z,976.73
2019-03-09T01:11:29.095Z,976.68
2019-03-09T01:12:29.060Z,976.68
2019-03-09T01:13:29.019Z,976.74
2019-03-09T01:14:28.981Z,976.83
2019-03-09T01:15:28.941Z,976.62
2019-03-09T01:16:28.896Z,976.75
2019-03-09T01:17:28.853Z,976.66
2019-03-09T01:18:28.810Z,976.71
2019-03-09T01:19:28.777Z,976.61
2019-03-09T01:20:28.735Z,976.62
2019-03-09T01:21:28.743Z,976.62
2019-03-09T01:22:28.649Z,976.66
2019-03-09T01:23:28.605Z,976.60
2019-03-09T01:24:28.568Z,976.63
2019-03-09T01:25:28.528Z,976.61
2019-03-09T01:26:28.488Z,976.57
2019-03-09T01:27:28.448Z,976.50
2019-03-09T01:28:28.404Z,976.54
2019-03-09T01:29:28.362Z,976.51
2019-03-09T01:30:28.319Z,976.63
2019-03-09T01:31:28.277Z,976.48
2019-03-09T01:32:28.238Z,976.56
2019-03-09T01:33:28.204Z,976.44
2019-03-09T01:34:28.160Z,976.52
2019-03-09T01:35:28.113Z,976.52
2019-03-09T01:36:28.075Z,976.58
2019-03-09T01:37:28.034Z,976.56
2019-03-09T01:38:27.996Z,976.51
2019-03-09T01:39:27.955Z,976.50
2019-03-09T01:40:27.913Z,976.51
2019-03-09T01:41:27.871Z,976.56
2019-03-09T01:42:27.840Z,976.52
2019-03-09T01:43:27.785Z,976.50
2019-03-09T01:44:27.746Z,976.52
2019-03-09T01:45:27.707Z,976.55
2019-03-09T01:46:27.672Z,976.44
2019-03-09T01:47:27.626Z,976.39
2019-03-09T01:48:27.584Z,976.38
2019-03-09T01:49:27.540Z,976.40
2019-03-09T01:50:27.497Z,976.40
2019-03-09T01:51:27.463Z,976.44
2019-03-09T01:52:27.419Z,976.42
2019-03-09T01:53:36.258Z,976.42
2019-03-09T01:54:27.332Z,976.27
2019-03-09T01:55:27.294Z,976.28
2019-03-09T01:56:27.251Z,976.37
2019-03-09T01:57:27.213Z,976.30
2019-03-09T01:58:27.173Z,976.28
2019-03-09T01:59:27.133Z,976.27
2019-03-09T02:00:27.092Z,976.33
2019-03-09T02:01:27.047Z,976.24
2019-03-09T02:02:27.003Z,976.03
2019-03-09T02:03:26.963Z,976.20
2019-03-09T02:04:26.926Z,976.06
2019-03-09T02:05:26.886Z,976.13
2019-03-09T02:06:26.888Z,976.16
2019-03-09T02:07:26.797Z,976.22
2019-03-09T02:08:26.758Z,976.17
2019-03-09T02:09:26.719Z,976.08
2019-03-09T02:10:26.680Z,976.15
2019-03-09T02:11:26.639Z,976.20
2019-03-09T02:12:26.595Z,976.24
2019-03-09T02:13:26.562Z,976.12
2019-03-09T02:14:26.508Z,976.06
2019-03-09T02:15:26.467Z,976.11
2019-03-09T02:16:26.429Z,976.09
2019-03-09T02:17:26.390Z,976.05
2019-03-09T02:18:26.350Z,976.00
2019-03-09T02:19:26.311Z,976.06
2019-03-09T02:20:26.266Z,976.09
2019-03-09T02:21:26.230Z,975.98
2019-03-09T02:22:26.181Z,976.01
2019-03-09T02:23:26.145Z,976.03
2019-03-09T02:24:26.101Z,976.06
2019-03-09T02:25:26.058Z,976.10
2019-03-09T02:26:26.014Z,976.03
2019-03-09T02:27:25.973Z,976.03
2019-03-09T02:28:25.935Z,975.94
2019-03-09T02:29:25.899Z,976.05
2019-03-09T02:30:25.858Z,976.03
2019-03-09T02:31:25.826Z,976.02
2019-03-09T02:32:25.775Z,976.01
2019-03-09T02:33:25.729Z,976.03
2019-03-09T02:34:25.684Z,976.04
2019-03-09T02:35:25.646Z,976.12
2019-03-09T02:36:25.607Z,975.93
2019-03-09T02:37:25.567Z,976.12
2019-03-09T02:38:25.526Z,976.16
2019-03-09T02:39:25.483Z,976.08
2019-03-09T02:40:25.441Z,976.08
2019-03-09T02:41:25.401Z,976.09
2019-03-09T02:42:25.361Z,976.09
2019-03-09T02:43:25.323Z,976.02
2019-03-09T02:44:25.277Z,975.99
2019-03-09T02:45:25.264Z,976.09
2019-03-09T02:46:25.197Z,976.00
2019-03-09T02:47:25.148Z,976.02
2019-03-09T02:48:25.108Z,975.93
2019-03-09T02:49:25.070Z,975.93
2019-03-09T02:50:25.034Z,975.92
2019-03-09T02:51:24.994Z,975.94
2019-03-09T02:52:24.950Z,976.01
2019-03-09T02:53:24.904Z,976.02
2019-03-09T02:54:24.860Z,975.99
2019-03-09T02:55:24.826Z,975.94
2019-03-09T02:56:24.787Z,975.95
2019-03-09T02:57:24.738Z,975.94
2019-03-09T02:58:24.702Z,975.94
2019-03-09T02:59:24.688Z,975.94
2019-03-09T03:00:24.640Z,975.93
2019-03-09T03:01:24.574Z,975.94
2019-03-09T03:02:24.535Z,975.93
2019-03-09T03:03:24.495Z,975.97
2019-03-09T03:04:24.451Z,975.96
2019-03-09T03:05:24.410Z,975.96
2019-03-09T03:06:24.366Z,975.91
2019-03-09T03:07:24.322Z,975.98
2019-03-09T03:08:24.283Z,975.96
2019-03-09T03:09:24.245Z,975.91
2019-03-09T03:10:24.205Z,975.94
2019-03-09T03:11:24.157Z,976.01
2019-03-09T03:12:24.120Z,975.87
2019-03-09T03:13:24.082Z,975.96
2019-03-09T03:14:24.039Z,975.94
2019-03-09T03:15:23.999Z,975.98
2019-03-09T03:16:23.958Z,976.01
2019-03-09T03:17:23.916Z,975.93
2019-03-09T03:18:23.871Z,976.11
2019-03-09T03:19:23.831Z,976.08
2019-03-09T03:20:23.790Z,976.18
2019-03-09T03:21:23.751Z,976.23
2019-03-09T03:22:23.710Z,976.17
2019-03-09T03:23:23.669Z,976.10
2019-03-09T03:24:23.631Z,976.11
2019-03-09T03:25:23.584Z,976.15
2019-03-09T03:26:23.541Z,976.12
2019-03-09T03:27:23.503Z,976.05
2019-03-09T03:28:23.463Z,976.16
2019-03-09T03:29:23.418Z,976.01
2019-03-09T03:43:35.682Z,976.02
2019-03-09T03:44:44.280Z,976.05
2019-03-09T03:46:29.124Z,975.91
2019-03-09T03:47:29.077Z,975.98
2019-03-09T03:48:29.027Z,975.97
2019-03-09T03:49:28.989Z,976.03
2019-03-09T03:50:28.944Z,976.02
2019-03-09T03:51:28.917Z,975.95
2019-03-09T03:52:28.860Z,975.93
2019-03-09T03:53:28.815Z,976.03
2019-03-09T03:54:28.773Z,975.91
2019-03-09T03:55:28.727Z,975.97
2019-03-09T03:56:28.685Z,975.89
2019-03-09T03:57:28.650Z,975.95
2019-03-09T03:58:28.604Z,975.90
2019-03-09T03:59:28.579Z,975.93
2019-03-09T04:00:28.522Z,975.96
2019-03-09T04:01:28.481Z,975.98
2019-03-09T04:02:28.435Z,976.00
2019-03-09T04:03:28.394Z,976.01
2019-03-09T04:04:28.359Z,976.11
2019-03-09T04:05:28.315Z,976.27
2019-03-09T04:06:28.276Z,976.18
2019-03-09T04:07:28.226Z,976.15
2019-03-09T04:08:28.185Z,976.18
2019-03-09T04:09:28.143Z,976.14
2019-03-09T04:10:28.108Z,976.25
2019-03-09T04:11:28.092Z,976.29
2019-03-09T04:12:28.025Z,976.23
2019-03-09T04:13:27.985Z,976.28
2019-03-09T04:14:27.937Z,976.24
2019-03-09T04:15:27.900Z,976.19
2019-03-09T04:16:27.851Z,976.17
2019-03-09T04:17:27.824Z,976.30
2019-03-09T04:18:27.772Z,976.23
2019-03-09T04:19:27.735Z,976.36
2019-03-09T04:20:27.728Z,976.43
2019-03-09T04:21:27.659Z,976.33
2019-03-09T04:22:27.607Z,976.36
2019-03-09T04:23:27.575Z,976.37
2019-03-09T04:24:27.529Z,976.48
2019-03-09T04:25:27.489Z,976.57
2019-03-09T04:26:27.442Z,976.39
2019-03-09T04:27:27.401Z,976.39
2019-03-09T04:28:27.362Z,976.40
2019-03-09T04:29:27.322Z,976.53
2019-03-09T04:30:27.286Z,976.53
2019-03-09T04:31:27.240Z,976.37
2019-03-09T04:32:27.201Z,976.47
2019-03-09T04:33:27.161Z,976.40
2019-03-09T04:34:27.115Z,976.37
2019-03-09T04:35:27.073Z,976.40
2019-03-09T04:36:27.035Z,976.36
2019-03-09T04:37:27.006Z,976.52
2019-03-09T04:38:26.955Z,976.42
2019-03-09T04:39:26.910Z,976.61
2019-03-09T04:40:26.865Z,976.70
2019-03-09T04:41:26.826Z,976.77
2019-03-09T04:42:26.788Z,976.68
2019-03-09T04:43:26.751Z,976.82
2019-03-09T04:44:27.344Z,976.87
2019-03-09T04:45:26.664Z,976.92
2019-03-09T04:46:26.620Z,976.80
2019-03-09T04:47:26.578Z,976.95
2019-03-09T04:48:26.537Z,976.86
2019-03-09T04:49:26.500Z,976.92
2019-03-09T04:50:26.461Z,976.87
2019-03-09T04:51:26.419Z,976.91
2019-03-09T04:52:26.373Z,976.91
2019-03-09T04:53:26.341Z,976.87
2019-03-09T04:54:26.295Z,976.91
2019-03-09T04:55:26.256Z,976.99
2019-03-09T04:56:26.215Z,976.96
2019-03-09T04:57:26.173Z,977.05
2019-03-09T04:58:26.129Z,977.05
2019-03-09T04:59:26.088Z,977.00
2019-03-09T05:00:26.048Z,977.08
2019-03-09T05:01:26.008Z,977.03
2019-03-09T05:02:25.969Z,977.13
2019-03-09T05:03:25.931Z,977.11
2019-03-09T05:04:25.892Z,976.89
2019-03-09T05:05:25.847Z,976.83
2019-03-09T05:06:25.805Z,976.81
2019-03-09T05:07:25.763Z,976.94
2019-03-09T05:08:25.739Z,976.95
2019-03-09T05:09:25.683Z,976.89
2019-03-09T05:10:25.648Z,976.93
2019-03-09T05:11:25.597Z,977.08
2019-03-09T05:12:25.557Z,977.07
2019-03-09T05:13:25.519Z,977.16
2019-03-09T05:14:25.479Z,977.28
2019-03-09T05:15:25.442Z,977.24
2019-03-09T05:16:25.399Z,977.36
2019-03-09T05:17:25.359Z,977.32
2019-03-09T05:18:25.314Z,977.35
2019-03-09T05:19:25.274Z,977.39
2019-03-09T05:20:25.233Z,977.45
2019-03-09T05:21:25.193Z,977.49
2019-03-09T05:22:25.155Z,977.49
2019-03-09T05:23:25.113Z,977.46
2019-03-09T05:24:25.070Z,977.44
2019-03-09T05:25:25.028Z,977.38
2019-03-09T05:26:24.993Z,977.56
2019-03-09T05:27:24.951Z,977.50
2019-03-09T05:28:24.910Z,977.45
2019-03-09T05:29:24.872Z,977.44
2019-03-09T05:30:24.830Z,977.43
2019-03-09T05:31:24.786Z,977.37
2019-03-09T05:32:24.745Z,977.32
2019-03-09T05:33:24.704Z,977.28
2019-03-09T05:34:24.670Z,977.32
2019-03-09T05:35:24.626Z,977.32
2019-03-09T05:36:24.587Z,977.28
2019-03-09T05:37:24.547Z,977.39
2019-03-09T05:38:24.502Z,977.55
2019-03-09T05:39:24.462Z,977.54
2019-03-09T05:40:24.422Z,977.57
2019-03-09T05:41:24.385Z,977.60
2019-03-09T05:42:24.338Z,977.58
2019-03-09T05:43:24.298Z,977.58
2019-03-09T05:44:24.258Z,977.53
2019-03-09T05:45:24.216Z,977.59
2019-03-09T05:46:24.184Z,977.59
2019-03-09T05:47:24.139Z,977.66
2019-03-09T05:48:24.100Z,977.69
2019-03-09T05:49:24.066Z,977.69
2019-03-09T05:50:24.015Z,977.73
2019-03-09T05:51:23.975Z,977.75
2019-03-09T05:52:23.938Z,977.77
2019-03-09T05:53:23.894Z,977.76
2019-03-09T05:54:23.858Z,977.78
2019-03-09T05:55:23.815Z,977.80
2019-03-09T05:56:23.776Z,977.77
2019-03-09T05:57:23.732Z,977.74
2019-03-09T05:58:23.696Z,977.78
2019-03-09T05:59:23.653Z,977.81
2019-03-09T06:00:23.614Z,977.80
2019-03-09T06:01:23.577Z,977.80
2019-03-09T06:02:23.527Z,977.81
2019-03-09T06:03:23.489Z,977.83
2019-03-09T06:04:23.449Z,977.76
2019-03-09T06:05:23.407Z,977.80
2019-03-09T06:06:23.377Z,977.76
2019-03-09T06:07:23.329Z,977.91
2019-03-09T06:08:23.289Z,977.77
2019-03-09T06:09:23.252Z,977.83
2019-03-09T06:10:23.203Z,977.83
2019-03-09T06:11:23.167Z,977.83
2019-03-09T06:12:23.127Z,977.79
2019-03-09T06:13:23.089Z,977.82
2019-03-09T06:14:23.042Z,977.77
2019-03-09T06:15:23.007Z,977.70
2019-03-09T06:16:22.964Z,977.69
2019-03-09T06:17:22.921Z,977.72
2019-03-09T06:18:22.886Z,977.80
2019-03-09T06:19:22.847Z,977.70
2019-03-09T06:20:22.806Z,977.67
2019-03-09T06:21:22.766Z,977.65
2019-03-09T06:22:22.720Z,977.67
2019-03-09T06:23:22.685Z,977.66
2019-03-09T06:24:22.640Z,977.66
2019-03-09T06:25:22.599Z,977.62
2019-03-09T06:26:22.564Z,977.56
2019-03-09T06:27:22.527Z,977.53
2019-03-09T06:28:22.479Z,977.53
2019-03-09T06:29:22.436Z,977.51
2019-03-09T06:30:22.400Z,977.46
2019-03-09T06:31:22.364Z,977.47
2019-03-09T06:32:22.318Z,977.53
2019-03-09T06:33:22.282Z,977.53
2019-03-09T06:34:22.235Z,977.55
2019-03-09T06:35:22.199Z,977.61
2019-03-09T06:36:22.163Z,977.65
2019-03-09T06:37:22.117Z,977.75
2019-03-09T06:38:22.079Z,977.84
2019-03-09T06:39:22.041Z,977.81
2019-03-09T06:40:22.009Z,977.90
2019-03-09T06:41:21.962Z,977.91
2019-03-09T06:42:21.944Z,977.79
2019-03-09T06:43:21.873Z,977.84
2019-03-09T06:44:21.836Z,977.91
2019-03-09T06:45:21.798Z,977.88
2019-03-09T06:46:21.754Z,977.86
2019-03-09T06:47:21.713Z,977.85
2019-03-09T06:48:21.674Z,977.87
2019-03-09T06:49:21.631Z,977.83
2019-03-09T06:50:21.596Z,977.84
2019-03-09T06:51:21.552Z,977.78
2019-03-09T06:52:21.517Z,977.81
2019-03-09T06:53:21.478Z,977.79
2019-03-09T06:54:21.428Z,977.76
2019-03-09T06:55:21.390Z,977.82
2019-03-09T06:56:21.351Z,977.84
2019-03-09T06:57:21.310Z,977.78
2019-03-09T06:58:21.273Z,977.76
2019-03-09T06:59:21.235Z,977.88
2019-03-09T07:00:21.195Z,977.85
2019-03-09T07:01:21.148Z,977.95
2019-03-09T07:02:21.115Z,977.94
2019-03-09T07:03:21.077Z,978.00
2019-03-09T07:04:21.035Z,978.00
2019-03-09T07:05:20.995Z,978.10
2019-03-09T07:06:20.954Z,978.17
2019-03-09T07:07:20.909Z,978.18
2019-03-09T07:08:20.869Z,978.15
2019-03-09T07:09:20.828Z,978.20
2019-03-09T07:10:20.794Z,978.25
2019-03-09T07:11:20.750Z,978.39
2019-03-09T07:12:20.711Z,978.48
2019-03-09T07:13:20.673Z,978.42
2019-03-09T07:14:20.626Z,978.49
2019-03-09T07:15:20.594Z,978.52
2019-03-09T07:16:20.551Z,978.53
2019-03-09T07:17:20.513Z,978.53
2019-03-09T07:18:20.467Z,978.64
2019-03-09T07:19:20.430Z,978.60
2019-03-09T07:20:20.391Z,978.65
2019-03-09T07:21:20.346Z,978.68
2019-03-09T07:22:20.312Z,978.71
2019-03-09T07:23:20.269Z,978.88
2019-03-09T07:24:20.230Z,978.90
2019-03-09T07:25:20.192Z,978.90
2019-03-09T07:26:20.145Z,978.92
2019-03-09T07:27:20.113Z,979.03
2019-03-09T07:28:20.072Z,979.08
2019-03-09T07:29:20.025Z,979.05
2019-03-09T07:30:19.992Z,979.13
2019-03-09T07:31:19.954Z,979.10
2019-03-09T07:32:19.908Z,979.19
2019-03-09T07:33:19.866Z,979.16
2019-03-09T07:34:19.829Z,979.22
2019-03-09T07:35:19.790Z,979.34
2019-03-09T07:36:19.755Z,979.24
2019-03-09T07:37:19.718Z,979.29
2019-03-09T07:38:19.667Z,979.38
2019-03-09T07:39:19.629Z,979.39
2019-03-09T07:40:19.587Z,979.39
2019-03-09T07:41:19.551Z,979.30
2019-03-09T07:42:19.514Z,979.26
2019-03-09T07:43:19.472Z,979.30
2019-03-09T07:44:19.430Z,979.33
2019-03-09T07:45:19.397Z,979.37
2019-03-09T07:46:19.351Z,979.36
2019-03-09T07:47:19.310Z,979.29
2019-03-09T07:48:19.270Z,979.36
2019-03-09T07:49:19.233Z,979.37
2019-03-09T07:50:19.189Z,979.38
2019-03-09T07:51:19.148Z,979.38
2019-03-09T07:52:19.108Z,979.39
2019-03-09T07:53:19.066Z,979.37
2019-03-09T07:54:19.032Z,979.42
2019-03-09T07:55:18.992Z,979.47
2019-03-09T07:56:18.950Z,979.43
2019-03-09T07:57:18.913Z,979.43
2019-03-09T07:58:18.870Z,979.47
2019-03-09T07:59:18.831Z,979.46
2019-03-09T08:00:18.792Z,979.47
2019-03-09T08:01:18.750Z,979.41
2019-03-09T08:02:18.716Z,979.50
2019-03-09T08:03:18.675Z,979.44
2019-03-09T08:04:18.658Z,979.53
2019-03-09T08:05:18.590Z,979.39
2019-03-09T08:06:18.557Z,979.51
2019-03-09T08:07:18.513Z,979.55
2019-03-09T08:08:18.476Z,979.48
2019-03-09T08:09:18.436Z,979.48
2019-03-09T08:10:18.389Z,979.48
2019-03-09T08:11:18.351Z,979.43
2019-03-09T08:12:18.314Z,979.51
2019-03-09T08:13:18.270Z,979.43
2019-03-09T08:14:18.236Z,979.52
2019-03-09T08:15:18.195Z,979.42
2019-03-09T08:16:18.154Z,979.47
2019-03-09T08:17:18.117Z,979.49
2019-03-09T08:18:18.071Z,979.50
2019-03-09T08:19:18.034Z,979.48
2019-03-09T08:20:17.996Z,979.49
2019-03-09T08:21:17.964Z,979.51
2019-03-09T08:22:17.912Z,979.52
2019-03-09T08:23:17.888Z,979.57
2019-03-09T08:24:17.838Z,979.47
2019-03-09T08:25:17.798Z,979.49
2019-03-09T08:26:17.763Z,979.54
2019-03-09T08:27:17.727Z,979.51
2019-03-09T08:28:17.694Z,979.56
2019-03-09T08:29:17.643Z,979.57
2019-03-09T08:30:17.595Z,979.54
2019-03-09T08:31:17.557Z,979.46
2019-03-09T08:32:17.523Z,979.57
2019-03-09T08:33:17.476Z,979.66
2019-03-09T08:34:17.449Z,979.60
2019-03-09T08:35:17.401Z,979.64
2019-03-09T08:36:17.401Z,979.64
2019-03-09T08:37:17.378Z,979.54
2019-03-09T08:38:17.291Z,979.68
2019-03-09T08:39:17.246Z,979.63
2019-03-09T08:40:17.212Z,979.60
2019-03-09T08:41:17.185Z,979.58
2019-03-09T08:42:17.137Z,979.54
2019-03-09T08:43:17.083Z,979.63
2019-03-09T08:44:17.046Z,979.51
2019-03-09T08:45:17.009Z,979.41
2019-03-09T08:46:16.975Z,979.46
2019-03-09T08:47:16.935Z,979.56
2019-03-09T08:48:16.891Z,979.57
2019-03-09T08:49:16.848Z,979.42
2019-03-09T08:50:16.829Z,979.46
2019-03-09T08:51:16.800Z,979.45
2019-03-09T08:52:16.737Z,979.46
2019-03-09T08:53:16.693Z,979.45
2019-03-09T08:54:16.686Z,979.41
2019-03-09T08:55:18.019Z,979.42
2019-03-09T08:56:16.567Z,979.41
2019-03-09T08:57:16.524Z,979.38
2019-03-09T08:58:16.494Z,979.49
2019-03-09T08:59:16.500Z,979.48
2019-03-09T09:00:16.437Z,979.59
2019-03-09T09:01:16.374Z,979.60
2019-03-09T09:02:16.344Z,979.58
2019-03-09T09:03:16.297Z,979.65
2019-03-09T09:04:16.254Z,979.70
2019-03-09T09:05:16.213Z,979.59
2019-03-09T09:06:16.176Z,979.46
2019-03-09T09:07:16.139Z,979.44
2019-03-09T09:08:16.096Z,979.38
2019-03-09T09:09:16.072Z,979.50
2019-03-09T09:10:16.018Z,979.51
2019-03-09T09:11:15.982Z,979.55
2019-03-09T09:12:15.939Z,979.59
2019-03-09T09:13:15.902Z,979.62
2019-03-09T09:14:15.858Z,979.53
2019-03-09T09:15:15.846Z,979.54
2019-03-09T09:16:15.784Z,979.55
2019-03-09T09:17:15.739Z,979.54
2019-03-09T09:18:15.708Z,979.56
2019-03-09T09:19:15.667Z,979.65
2019-03-09T09:20:15.629Z,979.63
2019-03-09T09:21:15.587Z,979.54
2019-03-09T09:22:15.552Z,979.51
2019-03-09T09:23:15.507Z,979.62
2019-03-09T09:24:15.520Z,979.44
2019-03-09T09:25:15.432Z,979.54
2019-03-09T09:26:15.393Z,979.60
2019-03-09T09:27:15.350Z,979.49
2019-03-09T09:28:15.314Z,979.48
2019-03-09T09:29:15.274Z,979.35
2019-03-09T09:30:15.235Z,979.46
2019-03-09T09:31:15.196Z,979.54
2019-03-09T09:32:15.154Z,979.56
2019-03-09T09:33:15.111Z,979.65
2019-03-09T09:34:15.079Z,979.57
2019-03-09T09:35:15.039Z,979.62
2019-03-09T09:36:15.004Z,979.53
2019-03-09T09:37:14.972Z,979.61
2019-03-09T09:38:14.914Z,979.56
2019-03-09T09:39:14.882Z,979.59
2019-03-09T09:40:14.840Z,979.59
2019-03-09T09:41:14.803Z,979.43
2019-03-09T09:42:14.758Z,979.58
2019-03-09T09:43:14.726Z,979.51
2019-03-09T09:57:27.247Z,979.08
2019-03-09T09:58:27.172Z,979.03
2019-03-09T09:59:27.129Z,979.07
2019-03-09T10:00:27.088Z,979.33
2019-03-09T10:01:27.041Z,979.11
2019-03-09T10:02:27.003Z,979.09
2019-03-09T10:03:27.019Z,979.17
2019-03-09T10:04:26.926Z,979.05
2019-03-09T10:05:26.884Z,979.09
2019-03-09T10:06:26.840Z,979.06
2019-03-09T10:07:26.805Z,978.99
2019-03-09T10:08:26.761Z,978.97
2019-03-09T10:09:26.717Z,978.98
2019-03-09T10:10:26.676Z,979.01
2019-03-09T10:11:26.636Z,978.98
2019-03-09T10:12:35.796Z,979.02
2019-03-09T15:41:11.716Z,977.12
2019-03-09T15:42:11.652Z,977.30
2019-03-09T15:43:11.600Z,977.06
2019-03-09T15:44:11.556Z,976.96
2019-03-09T15:45:11.515Z,976.92
2019-03-09T15:46:11.480Z,976.94
2019-03-09T15:47:11.435Z,977.01
2019-03-09T15:48:11.394Z,976.86
2019-03-09T15:49:11.357Z,976.82
2019-03-09T15:50:11.309Z,976.86
2019-03-09T15:51:11.270Z,976.98
2019-03-09T15:52:11.242Z,977.04
2019-03-09T15:53:11.190Z,977.03
2019-03-09T15:54:11.154Z,977.00
2019-03-09T15:55:11.112Z,977.12
2019-03-09T15:56:11.069Z,977.15
2019-03-09T15:57:11.029Z,976.99
2019-03-09T15:58:10.999Z,976.94
2019-03-09T15:59:10.956Z,977.01
2019-03-09T16:00:10.917Z,977.06
2019-03-09T16:01:10.881Z,977.04
2019-03-09T16:02:10.830Z,977.05
2019-03-09T16:03:10.795Z,977.10
2019-03-09T16:04:10.759Z,977.12
2019-03-09T16:05:10.714Z,977.11
2019-03-09T16:06:10.682Z,977.41
2019-03-09T16:07:10.641Z,977.16
2019-03-09T16:08:10.603Z,977.11
2019-03-09T16:09:10.565Z,977.13
2019-03-09T16:10:10.525Z,977.09
2019-03-09T16:11:10.482Z,977.09
2019-03-09T21:57:55.880Z,982.08
2019-03-09T21:58:46.733Z,982.08
2019-03-09T21:59:46.678Z,982.06
2019-03-09T22:00:46.634Z,982.04
2019-03-09T22:01:46.592Z,982.04
2019-03-09T22:02:46.548Z,981.96
2019-03-09T22:03:46.502Z,982.08
2019-03-09T22:04:46.461Z,982.05
2019-03-09T22:05:46.415Z,982.13
2019-03-09T22:06:55.035Z,982.14
2019-03-09T22:08:50.785Z,982.18
2019-03-09T22:09:50.708Z,982.15
2019-03-09T22:10:50.664Z,982.08
2019-03-09T22:11:50.625Z,982.05
2019-03-09T22:12:50.584Z,982.05
2019-03-09T22:13:50.547Z,982.03
2019-03-09T22:14:50.505Z,981.99
2019-03-09T22:15:50.492Z,982.02
2019-03-09T22:16:56.636Z,981.99
2019-03-09T22:17:50.379Z,981.94
2019-03-09T22:18:50.338Z,981.97
2019-03-09T22:19:50.298Z,981.95
2019-03-09T22:20:50.258Z,981.98
2019-03-09T22:21:50.210Z,982.04
2019-03-09T22:22:50.169Z,982.06
2019-03-09T22:23:50.127Z,982.06
2019-03-09T22:24:50.092Z,982.18
2019-03-09T22:25:50.050Z,982.13
2019-03-09T22:26:50.013Z,982.12
2019-03-09T22:27:49.982Z,982.20
2019-03-09T22:28:49.927Z,982.17
2019-03-09T22:29:49.883Z,982.23
2019-03-09T22:30:58.499Z,982.21
2019-03-09T22:33:04.682Z,982.22
2019-03-09T22:33:54.195Z,982.23
2019-03-09T22:34:54.155Z,982.18
2019-03-09T22:35:54.129Z,982.24
2019-03-09T22:36:54.074Z,982.21
2019-03-09T22:37:54.026Z,982.16
2019-03-09T22:38:53.989Z,982.17
2019-03-09T22:39:53.953Z,982.23
2019-03-09T22:40:53.916Z,982.21
2019-03-09T22:41:53.871Z,982.26
2019-03-09T22:42:53.833Z,982.22
2019-03-09T22:43:53.790Z,982.18
2019-03-09T22:44:53.746Z,982.19
2019-03-09T22:45:53.702Z,982.26
2019-03-09T22:46:53.672Z,982.27
2019-03-09T22:47:53.629Z,982.23
2019-03-09T22:48:53.585Z,982.19
2019-03-09T22:49:53.546Z,982.28
2019-03-09T22:50:53.502Z,982.26
2019-03-09T22:51:53.464Z,982.26
2019-03-09T22:52:53.426Z,982.23
2019-03-09T22:53:53.388Z,982.21
2019-03-09T22:54:53.347Z,982.25
2019-03-09T22:55:53.304Z,982.25
2019-03-09T22:56:53.259Z,982.22
2019-03-09T22:57:53.217Z,982.28
2019-03-09T22:58:53.178Z,982.27
2019-03-09T22:59:53.137Z,982.20
2019-03-09T23:00:53.101Z,982.23
2019-03-09T23:01:53.059Z,982.14
2019-03-09T23:02:53.018Z,982.17
2019-03-09T23:03:52.978Z,982.23
2019-03-09T23:04:52.942Z,982.13
2019-03-09T23:05:52.900Z,982.07
2019-03-09T23:06:52.861Z,982.12
2019-03-09T23:07:52.815Z,982.13
2019-03-09T23:08:52.773Z,982.02
2019-03-09T23:09:52.730Z,982.02
2019-03-09T23:10:52.692Z,981.99
2019-03-09T23:11:52.652Z,981.98
2019-03-09T23:12:52.616Z,981.92
2019-03-09T23:13:52.577Z,982.02
2019-03-09T23:14:52.534Z,981.98
2019-03-09T23:15:52.494Z,982.00
2019-03-09T23:16:52.452Z,981.96
2019-03-09T23:17:52.409Z,982.01
2019-03-09T23:18:52.374Z,982.03
2019-03-09T23:19:52.332Z,981.98
2019-03-09T23:20:52.289Z,981.96
2019-03-09T23:21:52.246Z,981.99
2019-03-09T23:22:52.207Z,981.95
2019-03-09T23:23:52.167Z,981.96
2019-03-09T23:24:52.155Z,981.95
2019-03-09T23:25:52.099Z,982.02
2019-03-09T23:26:52.050Z,981.93
2019-03-09T23:27:52.016Z,981.87
2019-03-09T23:28:51.966Z,981.89
2019-03-09T23:29:51.923Z,981.87
2019-03-09T23:30:51.885Z,981.85
2019-03-09T23:31:51.845Z,981.81
2019-03-09T23:32:51.809Z,981.80
2019-03-09T23:33:51.769Z,981.78
2019-03-09T23:34:51.724Z,981.75
2019-03-09T23:35:51.685Z,981.76
2019-03-09T23:36:51.651Z,981.76
2019-03-09T23:37:51.609Z,981.80
2019-03-09T23:38:51.569Z,981.79
2019-03-09T23:39:51.527Z,981.76
2019-03-09T23:40:51.484Z,981.77
2019-03-09T23:41:51.440Z,981.80
2019-03-09T23:42:51.400Z,981.69
2019-03-09T23:43:51.361Z,981.72
2019-03-09T23:44:51.327Z,981.78
2019-03-09T23:45:51.289Z,981.71
2019-03-09T23:46:51.246Z,981.68
2019-03-09T23:47:51.206Z,981.70
2019-03-09T23:48:51.162Z,981.74
2019-03-09T23:49:51.118Z,981.75
2019-03-09T23:50:51.082Z,981.75
2019-03-09T23:51:51.041Z,981.67
2019-03-09T23:52:51.082Z,981.68
2019-03-09T23:53:50.955Z,981.68
2019-03-09T23:54:50.921Z,981.71
2019-03-09T23:55:50.877Z,981.70
2019-03-09T23:56:50.862Z,981.67
2019-03-09T23:57:50.800Z,981.69
2019-03-09T23:58:50.765Z,981.68
2019-03-09T23:59:50.722Z,981.66
